createdAt,value
2022-07-31T00:02:08.111Z,21.70
2022-07-31T00:04:34.756Z,21.50
2022-07-31T00:07:01.801Z,21.70
2022-07-31T00:09:54.163Z,21.70
2022-07-31T00:12:17.311Z,22.10
2022-07-31T00:14:44.324Z,21.60
2022-07-31T00:17:11.003Z,21.60
2022-07-31T00:19:37.731Z,21.60
2022-07-31T00:22:04.537Z,22.00
2022-07-31T00:24:31.458Z,21.70
2022-07-31T00:26:58.402Z,21.50
2022-07-31T00:29:25.178Z,21.90
2022-07-31T00:31:52.005Z,21.40
2022-07-31T00:34:18.652Z,21.40
2022-07-31T00:36:45.324Z,21.40
2022-07-31T00:39:11.973Z,21.70
2022-07-31T00:41:43.296Z,21.40
2022-07-31T00:44:12.179Z,21.40
2022-07-31T00:46:40.310Z,21.50
2022-07-31T00:49:10.090Z,21.40
2022-07-31T00:51:38.109Z,21.30
2022-07-31T00:54:05.413Z,21.30
2022-07-31T00:56:32.372Z,21.20
2022-07-31T00:58:59.080Z,21.30
2022-07-31T01:01:26.065Z,21.50
2022-07-31T01:03:53.526Z,21.30
2022-07-31T01:06:20.616Z,21.20
2022-07-31T01:08:47.273Z,21.20
2022-07-31T01:11:19.403Z,21.20
2022-07-31T01:13:52.597Z,21.10
2022-07-31T01:16:21.742Z,21.10
2022-07-31T01:18:49.304Z,20.80
2022-07-31T01:21:25.886Z,21.10
2022-07-31T01:24:23.453Z,21.10
2022-07-31T01:27:01.472Z,21.10
2022-07-31T01:29:35.250Z,21.00
2022-07-31T01:32:10.535Z,21.00
2022-07-31T01:34:48.870Z,21.00
2022-07-31T01:37:49.275Z,20.50
2022-07-31T01:40:21.424Z,21.00
2022-07-31T01:42:56.748Z,21.00
2022-07-31T01:45:26.302Z,20.90
2022-07-31T01:47:54.553Z,20.90
2022-07-31T01:50:42.660Z,20.90
2022-07-31T01:53:12.813Z,20.90
2022-07-31T01:56:03.020Z,21.00
2022-07-31T01:58:34.899Z,20.70
2022-07-31T02:01:04.062Z,20.80
2022-07-31T02:03:43.950Z,20.80
2022-07-31T02:06:14.955Z,20.70
2022-07-31T02:08:46.430Z,20.70
2022-07-31T02:11:16.024Z,20.60
2022-07-31T02:13:44.204Z,20.60
2022-07-31T02:16:12.183Z,20.70
2022-07-31T02:18:40.111Z,21.30
2022-07-31T02:21:07.569Z,20.70
2022-07-31T02:23:36.100Z,20.70
2022-07-31T02:26:04.039Z,20.70
2022-07-31T02:28:32.506Z,20.60
2022-07-31T02:31:01.264Z,20.60
2022-07-31T02:33:29.105Z,21.30
2022-07-31T02:35:58.431Z,20.40
2022-07-31T02:38:27.911Z,20.90
2022-07-31T02:40:59.499Z,20.90
2022-07-31T02:43:27.509Z,20.50
2022-07-31T02:45:56.327Z,20.60
2022-07-31T02:48:25.132Z,20.60
2022-07-31T02:50:52.236Z,20.60
2022-07-31T02:53:20.069Z,20.50
2022-07-31T02:55:47.051Z,20.50
2022-07-31T02:58:14.354Z,20.50
2022-07-31T03:00:41.398Z,20.50
2022-07-31T03:03:08.138Z,20.50
2022-07-31T03:05:35.292Z,20.80
2022-07-31T03:08:01.982Z,20.50
2022-07-31T03:10:28.746Z,20.50
2022-07-31T03:12:56.019Z,20.50
2022-07-31T03:15:25.918Z,20.50
2022-07-31T03:17:53.903Z,20.50
2022-07-31T03:20:21.156Z,20.60
2022-07-31T03:22:48.620Z,20.60
2022-07-31T03:25:21.630Z,20.40
2022-07-31T03:27:55.850Z,20.60
2022-07-31T03:30:26.942Z,20.50
2022-07-31T03:32:55.093Z,20.50
2022-07-31T03:35:22.604Z,20.50
2022-07-31T03:37:49.629Z,20.50
2022-07-31T03:40:16.357Z,20.50
2022-07-31T03:42:44.278Z,20.50
2022-07-31T03:45:12.238Z,20.50
2022-07-31T03:47:39.215Z,20.50
2022-07-31T03:50:08.000Z,20.50
2022-07-31T03:52:35.366Z,20.50
2022-07-31T03:55:02.737Z,20.30
2022-07-31T03:57:31.330Z,20.40
2022-07-31T04:00:02.214Z,20.30
2022-07-31T04:02:29.420Z,20.30
2022-07-31T04:04:57.247Z,20.30
2022-07-31T04:07:24.478Z,20.30
2022-07-31T04:09:51.170Z,20.30
2022-07-31T04:12:17.946Z,20.20
2022-07-31T04:14:44.822Z,20.30
2022-07-31T04:17:11.768Z,20.30
2022-07-31T04:19:39.257Z,20.20
2022-07-31T04:22:06.582Z,20.20
2022-07-31T04:24:34.040Z,20.20
2022-07-31T04:27:00.835Z,20.20
2022-07-31T04:29:28.713Z,20.30
2022-07-31T04:31:55.884Z,20.30
2022-07-31T04:34:22.650Z,20.30
2022-07-31T04:36:49.406Z,20.30
2022-07-31T04:39:16.158Z,20.30
2022-07-31T04:41:43.075Z,20.30
2022-07-31T04:44:10.439Z,20.40
2022-07-31T04:46:37.519Z,20.40
2022-07-31T04:49:04.457Z,20.40
2022-07-31T04:51:31.368Z,20.40
2022-07-31T04:53:58.033Z,20.40
2022-07-31T04:56:33.765Z,20.40
2022-07-31T04:59:02.782Z,20.40
2022-07-31T05:01:29.739Z,20.50
2022-07-31T05:03:57.366Z,20.50
2022-07-31T05:06:33.221Z,20.50
2022-07-31T05:09:00.018Z,20.50
2022-07-31T05:11:26.771Z,20.60
2022-07-31T05:13:55.881Z,20.70
2022-07-31T05:16:23.120Z,20.80
2022-07-31T05:18:51.527Z,20.90
2022-07-31T05:21:19.019Z,20.90
2022-07-31T05:23:47.783Z,21.00
2022-07-31T05:26:16.049Z,21.10
2022-07-31T05:28:43.228Z,21.10
2022-07-31T05:31:13.743Z,21.20
2022-07-31T05:33:40.496Z,21.20
2022-07-31T05:36:07.544Z,21.30
2022-07-31T05:38:35.138Z,21.30
2022-07-31T05:41:01.830Z,21.40
2022-07-31T05:43:28.565Z,21.40
2022-07-31T05:45:55.874Z,21.40
2022-07-31T05:48:23.247Z,21.40
2022-07-31T05:50:51.130Z,21.40
2022-07-31T05:53:18.678Z,21.50
2022-07-31T05:55:47.043Z,21.40
2022-07-31T05:58:17.022Z,21.40
2022-07-31T06:00:45.765Z,21.50
2022-07-31T06:03:13.100Z,21.50
2022-07-31T06:05:41.008Z,21.50
2022-07-31T06:08:09.796Z,21.60
2022-07-31T06:10:37.540Z,21.60
2022-07-31T06:13:05.326Z,21.60
2022-07-31T06:15:36.262Z,21.70
2022-07-31T06:18:04.244Z,21.70
2022-07-31T06:20:31.026Z,21.70
2022-07-31T06:22:58.077Z,21.70
2022-07-31T06:25:31.908Z,21.80
2022-07-31T06:28:10.648Z,21.80
2022-07-31T06:30:37.628Z,21.80
2022-07-31T06:33:08.398Z,21.80
2022-07-31T06:35:35.341Z,21.90
2022-07-31T06:38:02.056Z,21.90
2022-07-31T06:40:28.729Z,21.90
2022-07-31T06:42:55.649Z,22.00
2022-07-31T06:45:48.465Z,22.00
2022-07-31T06:48:13.801Z,22.00
2022-07-31T06:50:40.594Z,22.00
2022-07-31T06:53:07.326Z,22.00
2022-07-31T06:55:34.019Z,22.00
2022-07-31T06:58:00.687Z,22.10
2022-07-31T07:00:27.530Z,22.20
2022-07-31T07:02:55.089Z,22.20
2022-07-31T07:05:21.830Z,22.20
2022-07-31T07:07:48.489Z,22.30
2022-07-31T07:10:15.211Z,22.30
2022-07-31T07:12:41.896Z,22.40
2022-07-31T07:15:10.334Z,22.40
2022-07-31T07:17:37.033Z,22.50
2022-07-31T07:20:04.159Z,22.50
2022-07-31T07:22:32.570Z,22.60
2022-07-31T07:25:00.977Z,22.60
2022-07-31T07:27:27.730Z,22.60
2022-07-31T07:29:54.376Z,22.70
2022-07-31T07:32:21.041Z,22.80
2022-07-31T07:34:47.686Z,22.80
2022-07-31T07:37:26.390Z,22.90
2022-07-31T07:39:53.348Z,23.00
2022-07-31T07:42:20.079Z,23.00
2022-07-31T07:44:46.777Z,23.10
2022-07-31T07:47:13.658Z,23.20
2022-07-31T07:49:40.311Z,23.30
2022-07-31T07:52:06.973Z,23.30
2022-07-31T07:54:33.737Z,23.40
2022-07-31T07:57:01.460Z,23.50
2022-07-31T07:59:28.119Z,23.60
2022-07-31T08:01:54.825Z,23.60
2022-07-31T08:04:21.571Z,23.70
2022-07-31T08:06:48.223Z,23.80
2022-07-31T08:09:14.896Z,23.90
2022-07-31T08:11:41.602Z,23.90
2022-07-31T08:14:08.302Z,24.00
2022-07-31T08:16:35.094Z,24.10
2022-07-31T08:19:01.809Z,24.10
2022-07-31T08:21:28.464Z,24.20
2022-07-31T08:23:55.253Z,24.20
2022-07-31T08:26:21.990Z,24.20
2022-07-31T08:28:50.393Z,24.30
2022-07-31T08:31:19.647Z,24.30
2022-07-31T08:33:46.462Z,24.40
2022-07-31T08:36:13.204Z,24.40
2022-07-31T08:38:39.927Z,24.50
2022-07-31T08:41:06.881Z,24.50
2022-07-31T08:44:02.772Z,24.60
2022-07-31T08:46:21.819Z,24.60
2022-07-31T08:48:53.448Z,24.70
2022-07-31T08:51:22.211Z,24.80
2022-07-31T08:53:51.397Z,24.80
2022-07-31T08:56:19.673Z,24.80
2022-07-31T08:58:46.913Z,24.90
2022-07-31T09:01:14.506Z,24.90
2022-07-31T09:03:41.549Z,25.00
2022-07-31T09:06:08.309Z,25.10
2022-07-31T09:08:36.323Z,25.10
2022-07-31T09:11:09.650Z,25.30
2022-07-31T09:13:37.507Z,25.40
2022-07-31T09:16:05.100Z,25.50
2022-07-31T09:18:32.374Z,25.70
2022-07-31T09:21:04.722Z,25.90
2022-07-31T09:23:34.540Z,26.10
2022-07-31T09:26:04.310Z,26.40
2022-07-31T09:28:45.772Z,26.60
2022-07-31T09:31:13.912Z,26.70
2022-07-31T09:33:45.913Z,26.80
2022-07-31T09:36:13.798Z,27.00
2022-07-31T09:38:43.334Z,27.30
2022-07-31T09:41:56.770Z,27.50
2022-07-31T09:44:09.895Z,27.70
2022-07-31T09:46:45.361Z,28.00
2022-07-31T09:49:12.371Z,28.20
2022-07-31T09:51:44.863Z,28.30
2022-07-31T09:54:22.419Z,28.40
2022-07-31T09:56:50.223Z,28.50
2022-07-31T09:59:17.645Z,28.60
2022-07-31T10:01:48.697Z,28.60
2022-07-31T10:04:20.031Z,28.60
2022-07-31T10:06:52.075Z,28.70
2022-07-31T10:09:20.912Z,28.70
2022-07-31T10:11:50.061Z,28.70
2022-07-31T10:14:28.727Z,28.70
2022-07-31T10:17:01.064Z,28.70
2022-07-31T10:19:32.170Z,28.70
2022-07-31T10:22:03.803Z,28.70
2022-07-31T10:24:38.601Z,28.70
2022-07-31T10:27:09.546Z,28.60
2022-07-31T10:29:36.854Z,28.60
2022-07-31T10:32:03.700Z,28.60
2022-07-31T10:34:32.154Z,28.60
2022-07-31T10:37:18.639Z,28.50
2022-07-31T10:40:08.558Z,28.50
2022-07-31T10:42:46.400Z,28.50
2022-07-31T10:45:14.616Z,28.50
2022-07-31T10:47:48.807Z,28.50
2022-07-31T10:50:26.960Z,28.50
2022-07-31T10:52:58.616Z,28.50
2022-07-31T10:55:27.439Z,28.50
2022-07-31T10:57:55.946Z,28.50
2022-07-31T11:00:29.497Z,28.50
2022-07-31T11:02:57.311Z,28.50
2022-07-31T11:05:25.962Z,28.40
2022-07-31T11:08:04.621Z,28.30
2022-07-31T11:10:31.844Z,28.20
2022-07-31T11:13:08.329Z,28.10
2022-07-31T11:15:37.455Z,28.00
2022-07-31T11:18:21.269Z,28.00
2022-07-31T11:21:22.843Z,28.00
2022-07-31T11:23:56.108Z,28.10
2022-07-31T11:26:33.496Z,28.20
2022-07-31T11:30:00.380Z,28.20
2022-07-31T11:31:55.100Z,28.30
2022-07-31T11:34:21.783Z,28.40
2022-07-31T11:36:51.565Z,28.40
2022-07-31T11:39:36.390Z,28.50
2022-07-31T11:42:04.823Z,28.60
2022-07-31T11:44:34.177Z,28.70
2022-07-31T11:47:00.976Z,28.80
2022-07-31T11:49:47.897Z,28.90
2022-07-31T11:52:31.320Z,29.10
2022-07-31T11:55:10.371Z,29.30
2022-07-31T11:57:51.885Z,29.40
2022-07-31T12:00:27.007Z,29.60
2022-07-31T12:02:57.533Z,29.70
2022-07-31T12:05:39.169Z,29.70
2022-07-31T12:08:07.554Z,29.70
2022-07-31T12:10:34.540Z,29.70
2022-07-31T12:13:02.554Z,29.60
2022-07-31T12:15:29.385Z,29.50
2022-07-31T12:18:03.869Z,29.40
2022-07-31T12:20:36.797Z,29.40
2022-07-31T12:23:05.823Z,29.30
2022-07-31T12:25:45.481Z,29.40
2022-07-31T12:28:14.710Z,29.40
2022-07-31T12:30:42.148Z,29.40
2022-07-31T12:33:10.280Z,29.50
2022-07-31T12:35:55.928Z,29.50
2022-07-31T12:38:45.472Z,29.40
2022-07-31T12:41:13.796Z,29.40
2022-07-31T12:43:51.064Z,29.40
2022-07-31T12:46:22.828Z,29.30
2022-07-31T12:48:49.830Z,29.20
2022-07-31T12:51:19.873Z,29.20
2022-07-31T12:53:47.942Z,29.20
2022-07-31T12:56:14.616Z,29.20
2022-07-31T12:58:41.345Z,29.20
2022-07-31T13:01:08.039Z,29.20
2022-07-31T13:03:45.427Z,29.30
2022-07-31T13:06:14.228Z,29.30
2022-07-31T13:08:43.688Z,29.40
2022-07-31T13:11:10.684Z,29.50
2022-07-31T13:13:37.351Z,29.50
2022-07-31T13:16:04.122Z,29.50
2022-07-31T13:18:32.444Z,29.50
2022-07-31T13:20:59.204Z,29.50
2022-07-31T13:23:25.929Z,29.40
2022-07-31T13:25:52.722Z,29.30
2022-07-31T13:28:19.420Z,29.20
2022-07-31T13:30:46.196Z,29.20
2022-07-31T13:33:12.868Z,29.10
2022-07-31T13:35:39.582Z,29.00
2022-07-31T13:38:06.348Z,29.00
2022-07-31T13:40:51.800Z,29.00
2022-07-31T13:43:18.519Z,28.90
2022-07-31T13:45:46.155Z,28.90
2022-07-31T13:48:12.840Z,28.90
2022-07-31T13:50:39.876Z,28.80
2022-07-31T13:53:07.087Z,28.90
2022-07-31T13:55:33.814Z,28.90
2022-07-31T13:58:01.515Z,28.80
2022-07-31T14:00:29.584Z,28.80
2022-07-31T14:02:57.096Z,28.80
2022-07-31T14:05:26.686Z,28.70
2022-07-31T14:08:02.148Z,28.80
2022-07-31T14:10:49.972Z,28.80
2022-07-31T14:13:18.441Z,28.80
2022-07-31T14:15:45.804Z,28.80
2022-07-31T14:18:13.033Z,28.80
2022-07-31T14:20:39.815Z,28.70
2022-07-31T14:23:08.163Z,28.80
2022-07-31T14:25:39.259Z,28.80
2022-07-31T14:28:07.079Z,28.80
2022-07-31T14:30:34.686Z,28.80
2022-07-31T14:33:01.953Z,28.90
2022-07-31T14:35:29.030Z,29.00
2022-07-31T14:37:55.889Z,29.20
2022-07-31T14:40:22.786Z,29.30
2022-07-31T14:42:49.515Z,29.40
2022-07-31T14:45:16.317Z,29.50
2022-07-31T14:47:45.077Z,29.60
2022-07-31T14:50:16.106Z,29.60
2022-07-31T14:52:46.081Z,29.70
2022-07-31T14:55:12.782Z,29.70
2022-07-31T14:57:39.546Z,29.60
2022-07-31T15:00:14.273Z,29.60
2022-07-31T15:02:42.699Z,29.50
2022-07-31T15:06:41.346Z,29.50
2022-07-31T15:07:56.699Z,29.40
2022-07-31T15:10:23.417Z,29.30
2022-07-31T15:12:50.912Z,29.30
2022-07-31T15:15:17.693Z,29.30
2022-07-31T15:17:44.379Z,29.30
2022-07-31T15:20:11.521Z,29.30
2022-07-31T15:22:38.271Z,29.30
2022-07-31T15:25:05.430Z,29.40
2022-07-31T15:27:32.159Z,29.50
2022-07-31T15:30:04.406Z,29.60
2022-07-31T15:32:36.876Z,29.80
2022-07-31T15:35:05.119Z,29.90
2022-07-31T15:37:35.479Z,30.00
2022-07-31T15:40:07.059Z,30.00
2022-07-31T15:42:38.065Z,30.00
2022-07-31T15:45:05.618Z,29.90
2022-07-31T15:47:32.372Z,29.80
2022-07-31T15:49:59.216Z,29.80
2022-07-31T15:52:25.960Z,29.70
2022-07-31T15:54:53.094Z,29.80
2022-07-31T15:57:24.044Z,29.80
2022-07-31T15:59:54.163Z,29.90
2022-07-31T16:02:21.689Z,30.00
2022-07-31T16:04:52.933Z,30.10
2022-07-31T16:08:31.638Z,30.20
2022-07-31T16:10:16.295Z,30.20
2022-07-31T16:12:45.799Z,30.20
2022-07-31T16:15:12.936Z,30.20
2022-07-31T16:17:40.305Z,30.20
2022-07-31T16:20:13.513Z,30.10
2022-07-31T16:22:55.518Z,30.10
2022-07-31T16:25:23.294Z,30.10
2022-07-31T16:27:50.035Z,30.00
2022-07-31T16:30:16.803Z,30.00
2022-07-31T16:32:43.953Z,30.00
2022-07-31T16:35:11.968Z,30.00
2022-07-31T16:37:51.090Z,30.00
2022-07-31T16:40:28.811Z,30.00
2022-07-31T16:43:01.920Z,30.10
2022-07-31T16:45:29.975Z,30.10
2022-07-31T16:47:57.180Z,30.10
2022-07-31T16:50:24.044Z,30.20
2022-07-31T16:52:54.570Z,30.20
2022-07-31T16:55:51.633Z,30.20
2022-07-31T16:58:11.300Z,30.30
2022-07-31T17:00:38.930Z,30.30
2022-07-31T17:03:06.077Z,30.30
2022-07-31T17:05:32.849Z,30.30
2022-07-31T17:07:59.621Z,30.40
2022-07-31T17:10:27.066Z,30.30
2022-07-31T17:12:54.662Z,30.30
2022-07-31T17:15:21.756Z,30.30
2022-07-31T17:17:48.703Z,30.30
2022-07-31T17:20:17.533Z,30.20
2022-07-31T17:22:44.269Z,30.20
2022-07-31T17:25:18.673Z,30.20
2022-07-31T17:27:45.780Z,30.10
2022-07-31T17:30:13.428Z,30.10
2022-07-31T17:32:40.617Z,30.00
2022-07-31T17:35:08.613Z,30.00
2022-07-31T17:37:40.394Z,29.90
2022-07-31T17:40:27.054Z,29.90
2022-07-31T17:42:55.147Z,29.90
2022-07-31T17:45:21.926Z,29.80
2022-07-31T17:47:48.939Z,29.70
2022-07-31T17:50:30.247Z,29.70
2022-07-31T17:52:56.941Z,29.60
2022-07-31T17:55:23.592Z,29.50
2022-07-31T17:57:50.364Z,29.50
2022-07-31T18:00:17.720Z,29.50
2022-07-31T18:02:44.445Z,29.50
2022-07-31T18:05:11.181Z,29.50
2022-07-31T18:07:38.878Z,29.50
2022-07-31T18:10:09.016Z,29.50
2022-07-31T18:12:56.843Z,29.50
2022-07-31T18:15:22.929Z,29.50
2022-07-31T18:18:01.785Z,29.50
2022-07-31T18:20:28.450Z,29.40
2022-07-31T18:22:55.112Z,29.40
2022-07-31T18:25:21.771Z,29.40
2022-07-31T18:27:48.559Z,29.40
2022-07-31T18:30:15.273Z,29.30
2022-07-31T18:32:42.840Z,29.30
2022-07-31T18:35:11.081Z,29.30
2022-07-31T18:37:37.783Z,29.30
2022-07-31T18:40:06.138Z,29.30
2022-07-31T18:42:32.826Z,29.20
2022-07-31T18:44:59.696Z,29.20
2022-07-31T18:47:26.626Z,29.10
2022-07-31T18:51:02.347Z,29.00
2022-07-31T18:52:40.221Z,28.90
2022-07-31T18:55:07.371Z,28.80
2022-07-31T18:57:34.062Z,28.70
2022-07-31T19:00:01.269Z,28.60
2022-07-31T19:02:28.498Z,28.60
2022-07-31T19:04:55.327Z,28.40
2022-07-31T19:07:22.122Z,28.40
2022-07-31T19:09:48.815Z,28.30
2022-07-31T19:12:15.798Z,28.20
2022-07-31T19:14:42.821Z,28.10
2022-07-31T19:17:09.498Z,28.00
2022-07-31T19:19:52.662Z,27.90
2022-07-31T19:22:23.884Z,27.70
2022-07-31T19:24:50.883Z,27.60
2022-07-31T19:27:18.101Z,27.60
2022-07-31T19:29:44.888Z,27.50
2022-07-31T19:32:12.416Z,27.40
2022-07-31T19:34:39.107Z,27.30
2022-07-31T19:37:09.919Z,27.20
2022-07-31T19:39:36.871Z,27.10
2022-07-31T19:42:11.767Z,27.10
2022-07-31T19:44:39.547Z,27.00
2022-07-31T19:47:06.460Z,26.90
2022-07-31T19:49:37.860Z,26.90
2022-07-31T19:52:05.874Z,26.80
2022-07-31T19:54:32.940Z,26.80
2022-07-31T19:56:59.630Z,26.70
2022-07-31T19:59:26.303Z,26.60
2022-07-31T20:01:52.941Z,26.60
2022-07-31T20:04:19.674Z,26.50
2022-07-31T20:06:46.336Z,26.40
2022-07-31T20:09:13.481Z,26.40
2022-07-31T20:11:40.160Z,26.20
2022-07-31T20:14:06.809Z,26.20
2022-07-31T20:16:33.583Z,26.10
2022-07-31T20:19:01.252Z,26.10
2022-07-31T20:21:31.987Z,26.00
2022-07-31T20:24:02.875Z,26.00
2022-07-31T20:26:31.449Z,25.90
2022-07-31T20:28:58.126Z,25.90
2022-07-31T20:31:24.809Z,25.90
2022-07-31T20:33:57.016Z,25.80
2022-07-31T20:36:25.922Z,25.80
2022-07-31T20:38:52.879Z,25.80
2022-07-31T20:41:19.538Z,25.60
2022-07-31T20:43:46.297Z,25.60
2022-07-31T20:46:13.077Z,25.60
2022-07-31T20:48:40.026Z,25.60
2022-07-31T20:51:09.089Z,25.50
2022-07-31T20:53:36.605Z,25.50
2022-07-31T20:56:03.341Z,25.40
2022-07-31T20:58:30.020Z,25.40
2022-07-31T21:00:57.029Z,25.40
2022-07-31T21:03:23.896Z,25.40
2022-07-31T21:05:51.021Z,25.30
2022-07-31T21:08:18.247Z,25.30
2022-07-31T21:10:45.230Z,25.30
2022-07-31T21:13:12.371Z,25.30
2022-07-31T21:15:43.889Z,25.20
2022-07-31T21:18:15.872Z,25.20
2022-07-31T21:20:52.044Z,25.10
2022-07-31T21:23:24.688Z,25.10
2022-07-31T21:25:56.148Z,25.10
2022-07-31T21:28:25.252Z,25.00
2022-07-31T21:30:56.071Z,25.00
2022-07-31T21:33:24.766Z,24.90
2022-07-31T21:35:51.651Z,24.90
2022-07-31T21:38:18.744Z,24.80
2022-07-31T21:40:46.653Z,24.80
2022-07-31T21:43:16.922Z,24.80
2022-07-31T21:45:55.020Z,24.80
2022-07-31T21:48:25.793Z,24.80
2022-07-31T21:50:53.939Z,24.80
2022-07-31T21:53:20.723Z,24.80
2022-07-31T21:55:47.444Z,24.70
2022-07-31T21:58:14.285Z,24.80
2022-07-31T22:00:41.151Z,24.70
2022-07-31T22:03:07.971Z,24.70
2022-07-31T22:05:54.014Z,24.60
2022-07-31T22:08:21.247Z,24.60
2022-07-31T22:10:50.487Z,24.60
2022-07-31T22:13:17.483Z,24.60
2022-07-31T22:15:58.358Z,24.50
2022-07-31T22:18:28.793Z,24.50
2022-07-31T22:20:56.112Z,24.50
2022-07-31T22:23:23.240Z,24.50
2022-07-31T22:25:50.696Z,24.40
2022-07-31T22:28:20.429Z,24.40
2022-07-31T22:30:47.569Z,24.40
2022-07-31T22:33:14.450Z,24.40
2022-07-31T22:35:41.671Z,24.30
2022-07-31T22:38:08.999Z,24.20
2022-07-31T22:40:35.781Z,24.20
2022-07-31T22:43:03.511Z,24.20
2022-07-31T22:45:30.691Z,24.20
2022-07-31T22:47:58.150Z,24.10
2022-07-31T22:50:25.126Z,24.10
2022-07-31T22:52:53.177Z,24.00
2022-07-31T22:55:19.891Z,24.00
2022-07-31T22:57:48.973Z,24.00
2022-07-31T23:00:19.155Z,24.00
2022-07-31T23:02:48.129Z,23.90
2022-07-31T23:05:14.897Z,23.90
2022-07-31T23:07:41.567Z,23.90
2022-07-31T23:10:08.857Z,23.90
2022-07-31T23:12:35.563Z,23.80
2022-07-31T23:15:02.309Z,23.80
2022-07-31T23:17:29.106Z,23.80
2022-07-31T23:19:56.223Z,23.90
2022-07-31T23:22:33.250Z,23.80
2022-07-31T23:25:04.700Z,23.80
2022-07-31T23:27:32.560Z,23.80
2022-07-31T23:29:59.543Z,23.80
2022-07-31T23:32:27.181Z,23.70
2022-07-31T23:34:54.457Z,23.70
2022-07-31T23:37:21.552Z,23.70
2022-07-31T23:39:48.256Z,23.70
2022-07-31T23:42:33.783Z,23.70
2022-07-31T23:45:00.444Z,23.70
2022-07-31T23:47:44.981Z,23.60
2022-07-31T23:50:14.222Z,23.60
2022-07-31T23:52:41.413Z,23.60
2022-07-31T23:55:09.130Z,23.50
2022-07-31T23:57:36.478Z,23.40
